44XS weather

CLOSED Prudential Heliport
Bellaire, Texas, United States

Public forecast

Using degrees Fahrenheit for public forecast. Weather courtesy of forecast.io.

Closest aviation weather report (METAR) to Prudential Heliport

Closest report is William P Hobby Airport, 10.2 nm (19.0 km) ESE. Retrieved 2020/08/08 08:53 UTC (26 minutes ago):

KHOU 080853Z 00000KT 10SM FEW020 SCT250 28/24 A3005 RMK AO2 SLP180 T02780239 55002

Closest aviation forecast (TAF) to Prudential Heliport

Closest forecast is William P Hobby Airport, 10.2 nm (19.0 km) ESE. Retrieved 2020/08/08 06:18 UTC (3 hours ago):

TAF KHOU 080617Z 0806/0906 VRB04KT P6SM FEW030 SCT250 FM081300 15005KT P6SM FEW025 FM081600 17006KT P6SM VCSH SCT040 FM081900 16010KT P6SM SCT045 SCT250 FM090100 16007KT P6SM SKC